Time;durP1;ratioP1;P1;durP2;ratioP2;P2;SDS_P1;SDS_P2;PMS_P1;PMS_P2;Temp;Humidity;BMP_temperature;BMP_pressure;BME280_temperature;BME280_humidity;BME280_pressure;Samples;Min_cycle;Max_cycle;Signal;HPM_P1;HPM_P2
2022/11/16 00:02:00;;;;;;;;;120.25;115.00;;;;;12.43;65.03;98838.75;4823691;29;11836;-81
2022/11/16 00:04:29;;;;;;;;;113.25;104.25;;;;;12.43;66.88;98838.75;4826699;29;11917;-78
2022/11/16 00:06:57;;;;;;;;;128.75;116.25;;;;;12.42;65.53;98835.28;4853068;29;11811;-79
2022/11/16 00:09:28;;;;;;;;;142.00;124.00;;;;;12.70;64.19;98824.22;4872794;29;11777;-84
2022/11/16 00:12:00;;;;;;;;;132.25;121.75;;;;;12.84;63.91;98826.56;4865178;29;11801;-79
2022/11/16 00:14:31;;;;;;;;;125.75;116.00;;;;;12.89;63.41;98827.31;4861244;29;11834;-78
2022/11/16 00:17:02;;;;;;;;;132.75;117.00;;;;;12.80;64.63;98823.16;4871546;29;11894;-82
2022/11/16 00:19:31;;;;;;;;;117.75;110.50;;;;;13.01;63.17;98819.22;4838882;29;11769;-81
2022/11/16 00:22:00;;;;;;;;;120.75;113.25;;;;;13.22;62.37;98814.41;4838611;29;11774;-80
2022/11/16 00:24:28;;;;;;;;;122.75;108.25;;;;;13.36;61.92;98808.84;4845781;29;11732;-80
2022/11/16 00:26:58;;;;;;;;;129.25;120.75;;;;;13.48;60.92;98811.19;4841025;29;11789;-81
2022/11/16 00:29:27;;;;;;;;;135.25;125.25;;;;;13.62;60.43;98798.59;4839937;29;11919;-79
2022/11/16 00:31:56;;;;;;;;;140.25;123.75;;;;;13.70;59.57;98800.19;4855672;29;12042;-80
2022/11/16 00:34:25;;;;;;;;;124.25;111.75;;;;;13.70;59.57;98805.41;4839955;29;11754;-82
2022/11/16 00:36:54;;;;;;;;;137.50;123.00;;;;;13.77;58.93;98797.34;4835847;29;11786;-80
2022/11/16 00:39:23;;;;;;;;;141.25;128.75;;;;;13.82;58.40;98805.13;4853067;29;11833;-80
2022/11/16 00:41:51;;;;;;;;;142.75;126.00;;;;;13.84;57.99;98803.31;4840644;29;11893;-80
2022/11/16 00:44:22;;;;;;;;;136.75;123.00;;;;;13.86;57.61;98795.41;4809123;29;11799;-78
2022/11/16 00:46:51;;;;;;;;;124.00;115.75;;;;;13.85;57.73;98789.28;4846133;29;11798;-80
2022/11/16 00:49:20;;;;;;;;;115.25;104.00;;;;;13.80;57.84;98797.28;4858423;29;11749;-80
2022/11/16 00:51:48;;;;;;;;;131.00;117.25;;;;;13.81;57.62;98782.41;4858211;29;11835;-80
2022/11/16 00:54:17;;;;;;;;;119.25;111.00;;;;;13.82;57.84;98779.75;4842999;29;11726;-80
2022/11/16 00:56:46;;;;;;;;;122.75;113.75;;;;;13.81;57.73;98780.66;4874465;29;11742;-79
2022/11/16 00:59:15;;;;;;;;;98.50;92.00;;;;;13.83;59.06;98772.75;4874592;29;11819;-81
2022/11/16 01:01:45;;;;;;;;;89.50;84.50;;;;;13.86;59.61;98774.44;4843877;29;10841;-82
2022/11/16 01:04:14;;;;;;;;;94.25;86.50;;;;;13.89;59.42;98772.59;4860675;29;10706;-79
2022/11/16 01:06:43;;;;;;;;;89.25;78.50;;;;;13.90;60.46;98766.47;4870217;29;10780;-80
2022/11/16 01:09:12;;;;;;;;;93.75;84.25;;;;;13.95;60.35;98753.22;4876557;29;10469;-80
2022/11/16 01:14:27;;;;;;;;;88.50;77.00;;;;;14.03;60.24;98752.13;4874749;29;9871;-80
2022/11/16 01:16:57;;;;;;;;;93.00;84.25;;;;;14.09;60.01;98740.59;4874396;29;11282;-80
2022/11/16 01:19:26;;;;;;;;;88.00;73.75;;;;;14.11;60.32;98745.81;4843545;29;11286;-79
2022/11/16 01:21:54;;;;;;;;;84.25;68.50;;;;;14.17;60.36;98735.13;4895108;29;9751;-79
2022/11/16 01:24:23;;;;;;;;;85.50;72.50;;;;;14.23;60.46;98735.84;4879649;29;10004;-78
2022/11/16 01:26:55;;;;;;;;;80.00;62.00;;;;;14.28;60.27;98725.19;4893492;29;9988;-82
2022/11/16 01:29:26;;;;;;;;;85.25;68.50;;;;;14.30;60.16;98725.16;4894293;29;9606;-78
2022/11/16 01:31:59;;;;;;;;;86.00;71.25;;;;;14.34;60.25;98727.63;4878713;29;9599;-80
2022/11/16 01:34:27;;;;;;;;;109.75;98.75;;;;;14.37;58.27;98721.47;4878772;29;9808;-81
2022/11/16 01:37:03;;;;;;;;;101.50;90.00;;;;;14.31;58.64;98719.00;4862580;29;12482;-82
2022/11/16 01:39:35;;;;;;;;;98.00;85.25;;;;;14.37;58.42;98713.59;4878491;29;10986;-79
2022/11/16 01:42:04;;;;;;;;;120.00;107.75;;;;;14.33;57.23;98707.59;4862728;29;11022;-80
2022/11/16 01:45:02;;;;;;;;;98.50;89.75;;;;;14.30;57.81;98707.66;4831092;29;11669;-79
2022/11/16 01:47:33;;;;;;;;;91.00;83.75;;;;;14.26;57.45;98700.78;4878865;29;10779;-81
2022/11/16 01:50:10;;;;;;;;;109.25;100.25;;;;;14.26;57.19;98700.78;4893795;29;11157;-80
2022/11/16 01:52:46;;;;;;;;;110.75;93.75;;;;;14.28;57.21;98695.50;4884648;29;11755;-80
2022/11/16 01:55:16;;;;;;;;;104.00;95.00;;;;;14.27;56.99;98697.25;4864565;29;11993;-79
2022/11/16 01:57:59;;;;;;;;;94.00;85.25;;;;;14.17;57.51;98690.56;4852248;29;11206;-79
2022/11/16 02:00:29;;;;;;;;;101.25;91.00;;;;;14.22;57.25;98697.41;4864265;29;10817;-80
2022/11/16 02:03:13;;;;;;;;;95.75;89.25;;;;;14.23;57.09;98691.25;4862017;29;10807;-79
2022/11/16 02:06:05;;;;;;;;;103.00;96.00;;;;;14.33;56.78;98691.84;4868585;29;10770;-79
2022/11/16 02:12:07;;;;;;;;;110.50;102.50;;;;;14.06;56.92;98700.50;4858568;29;11046;-81
2022/11/16 02:14:52;;;;;;;;;105.75;92.25;;;;;14.02;56.87;98699.72;4837685;29;11497;-78
2022/11/16 02:17:36;;;;;;;;;101.50;97.50;;;;;13.99;56.89;98698.06;4821793;29;12022;-82
2022/11/16 02:20:50;;;;;;;;;105.50;90.00;;;;;14.05;57.10;98689.16;4836819;29;11353;-79
2022/11/16 02:23:46;;;;;;;;;102.00;93.75;;;;;14.05;56.87;98681.28;4856100;29;11163;-80
2022/11/16 02:26:35;;;;;;;;;107.50;100.00;;;;;13.99;56.25;98686.72;4838339;29;11200;-80
2022/11/16 02:29:19;;;;;;;;;98.00;90.50;;;;;14.04;56.24;98679.56;4838370;29;11401;-79
2022/11/16 02:31:57;;;;;;;;;92.25;86.00;;;;;13.96;56.02;98674.53;4852718;29;11260;-79
2022/11/16 02:34:32;;;;;;;;;97.00;90.75;;;;;13.88;56.60;98668.66;4845060;29;11009;-80
2022/11/16 02:37:05;;;;;;;;;94.25;86.00;;;;;13.88;57.21;98665.19;4823500;29;10979;-80
2022/11/16 02:39:39;;;;;;;;;22.25;16.75;;;;;13.90;57.50;98655.53;4831455;29;11298;-79
2022/11/16 02:42:14;;;;;;;;;92.00;86.50;;;;;13.89;57.73;98648.56;4841029;29;9868;-80
2022/11/16 02:44:49;;;;;;;;;94.75;85.25;;;;;13.89;57.79;98643.31;4842665;29;10561;-81
2022/11/16 02:47:23;;;;;;;;;91.50;80.50;;;;;13.88;58.00;98646.84;4831570;29;10344;-80
2022/11/16 02:49:57;;;;;;;;;96.50;87.25;;;;;13.88;58.19;98647.69;4832783;29;10555;-79
2022/11/16 02:52:28;;;;;;;;;93.75;85.25;;;;;13.84;58.42;98646.94;4855190;29;10562;-79
2022/11/16 02:54:57;;;;;;;;;95.75;85.00;;;;;13.87;58.27;98639.88;4798478;29;10384;-78
2022/11/16 02:57:37;;;;;;;;;94.00;85.50;;;;;13.94;58.52;98649.28;4870073;29;10757;-78
2022/11/16 03:00:18;;;;;;;;;94.25;86.25;;;;;13.94;58.22;98641.44;4860584;29;10677;-79
2022/11/16 03:02:55;;;;;;;;;95.75;84.25;;;;;13.87;58.34;98640.72;4853048;29;10553;-80
2022/11/16 03:05:31;;;;;;;;;101.25;90.25;;;;;13.79;58.75;98646.19;4854176;29;10737;-81
2022/11/16 03:08:16;;;;;;;;;104.50;92.25;;;;;13.83;58.43;98642.56;4837952;29;11000;-79
2022/11/16 03:13:38;;;;;;;;;97.00;89.75;;;;;13.74;58.20;98629.75;4851281;29;10742;-80
2022/11/16 03:16:14;;;;;;;;;95.75;89.50;;;;;13.77;57.81;98631.44;4851670;29;11464;-79
2022/11/16 03:18:47;;;;;;;;;99.75;89.50;;;;;13.65;57.78;98625.63;4852877;29;10875;-78
2022/11/16 03:21:23;;;;;;;;;94.25;88.00;;;;;13.59;58.20;98630.16;4836441;29;11147;-80
2022/11/16 03:23:52;;;;;;;;;91.50;84.75;;;;;13.54;58.23;98626.84;4836086;29;10944;-79
2022/11/16 03:26:28;;;;;;;;;92.75;83.25;;;;;13.56;57.93;98617.16;4835053;29;10607;-80
2022/11/16 03:29:01;;;;;;;;;93.50;84.00;;;;;13.61;57.83;98621.38;4854735;29;10777;-80
2022/11/16 03:31:39;;;;;;;;;90.75;81.25;;;;;13.68;57.84;98624.66;4851307;29;10645;-80
2022/11/16 03:34:15;;;;;;;;;91.50;82.75;;;;;13.70;58.04;98617.63;4846757;29;10853;-80
2022/11/16 03:36:47;;;;;;;;;89.50;77.75;;;;;13.70;58.05;98616.78;4840099;29;10494;-81
2022/11/16 03:39:21;;;;;;;;;82.75;68.00;;;;;13.73;59.20;98617.53;4846396;29;10045;-82
2022/11/16 03:41:50;;;;;;;;;77.33;60.67;;;;;13.70;59.63;98612.38;4853153;29;9514;-79
2022/11/16 03:44:20;;;;;;;;;69.25;55.50;;;;;13.54;61.27;98604.09;4858840;29;9134;-79
2022/11/16 03:46:50;;;;;;;;;73.33;59.33;;;;;13.68;60.55;98606.31;4876164;29;8975;-79
2022/11/16 03:49:21;;;;;;;;;55.25;44.50;;;;;13.58;61.50;98599.66;4873208;29;9191;-78
2022/11/16 03:51:52;;;;;;;;;60.00;49.00;;;;;13.79;60.88;98601.66;4868947;29;8889;-81
2022/11/16 03:54:21;;;;;;;;;53.25;44.50;;;;;13.76;61.07;98588.66;4880837;29;8933;-80
2022/11/16 03:56:50;;;;;;;;;55.50;45.00;;;;;13.76;61.49;98579.91;4861622;29;8963;-79
2022/11/16 03:59:18;;;;;;;;;45.75;36.75;;;;;13.86;60.99;98581.38;4852730;29;9687;-80
2022/11/16 04:01:47;;;;;;;;;41.50;37.75;;;;;14.12;60.13;98577.09;4859493;29;8930;-81
2022/11/16 04:29:19;;;;;;;;;38.25;35.75;;;;;14.83;56.53;98533.75;4850936;29;8975;-79
2022/11/16 04:40:10;;;;;;;;;28.80;27.40;;;;;15.20;54.47;98520.19;4871651;29;8898;-79
2022/11/16 04:42:37;;;;;;;;;36.20;33.00;;;;;15.27;54.20;98517.34;4861557;29;8922;-79
2022/11/16 04:47:54;;;;;;;;;24.40;22.80;;;;;15.59;53.00;98513.50;4871110;29;8908;-78
2022/11/16 04:50:28;;;;;;;;;27.40;26.60;;;;;15.75;52.37;98519.09;4868944;29;9608;-82
2022/11/16 04:52:59;;;;;;;;;29.00;26.60;;;;;15.78;52.02;98517.22;4841929;29;8875;-79
2022/11/16 04:55:29;;;;;;;;;29.00;25.00;;;;;15.93;51.95;98510.47;4870870;29;8895;-78
2022/11/16 04:57:59;;;;;;;;;33.40;30.40;;;;;16.13;51.77;98514.97;4855606;29;8902;-79
2022/11/16 05:00:28;;;;;;;;;30.20;30.00;;;;;16.11;51.57;98516.78;4820950;29;8865;-80
2022/11/16 05:02:57;;;;;;;;;36.50;34.25;;;;;16.09;51.83;98517.78;4791366;29;8885;-79
2022/11/16 05:05:30;;;;;;;;;37.00;32.50;;;;;16.05;51.52;98518.78;4813616;29;8902;-81
2022/11/16 05:08:01;;;;;;;;;48.25;40.75;;;;;15.69;52.71;98525.41;4785970;29;8929;-80
2022/11/16 05:10:32;;;;;;;;;42.25;35.50;;;;;15.79;51.96;98518.06;4816054;29;8928;-81
2022/11/16 05:13:01;;;;;;;;;32.40;31.20;;;;;15.63;52.49;98517.72;4801254;29;8874;-79
2022/11/16 05:15:30;;;;;;;;;36.25;34.25;;;;;15.82;51.76;98517.06;4802088;29;8902;-83
2022/11/16 05:18:00;;;;;;;;;36.60;31.80;;;;;15.82;51.82;98517.91;4786852;29;9004;-80
2022/11/16 05:26:10;;;;;;;;;29.40;28.40;;;;;15.64;51.83;98508.09;4807003;29;8887;-80
2022/11/16 05:28:39;;;;;;;;;32.40;29.80;;;;;15.75;51.74;98506.81;4808531;29;9682;-80
2022/11/16 05:31:09;;;;;;;;;27.20;25.60;;;;;15.87;51.22;98502.84;4803402;29;8886;-78
2022/11/16 05:33:38;;;;;;;;;27.80;24.00;;;;;15.90;51.30;98504.50;4843962;29;8887;-82
2022/11/16 05:36:08;;;;;;;;;25.80;22.60;;;;;16.08;50.17;98503.75;4855175;29;9713;-81
2022/11/16 05:38:38;;;;;;;;;32.60;31.00;;;;;16.13;50.52;98498.34;4828022;29;9589;-79
2022/11/16 05:41:07;;;;;;;;;26.20;26.20;;;;;16.08;50.65;98501.13;4851305;29;8893;-80
2022/11/16 05:43:35;;;;;;;;;39.80;34.60;;;;;16.04;50.74;98494.28;4859001;29;8893;-80
2022/11/16 05:46:13;;;;;;;;;22.40;20.80;;;;;16.20;49.79;98497.16;4857988;29;8974;-79
2022/11/16 05:48:42;;;;;;;;;17.00;17.00;;;;;16.03;49.87;98489.97;4842014;29;8883;-80
2022/11/16 05:51:11;;;;;;;;;15.80;15.00;;;;;16.11;49.65;98495.75;4854522;29;8889;-80
2022/11/16 05:53:41;;;;;;;;;21.20;18.20;;;;;16.13;49.44;98493.06;4877089;29;8870;-80
2022/11/16 05:56:13;;;;;;;;;19.00;18.00;;;;;16.09;49.83;98488.84;4844577;29;8927;-79
2022/11/16 05:58:43;;;;;;;;;18.60;18.20;;;;;16.18;49.37;98485.81;4875151;29;8885;-79
2022/11/16 06:01:12;;;;;;;;;19.00;18.20;;;;;16.14;49.62;98490.38;4864000;29;8862;-80
2022/11/16 06:03:40;;;;;;;;;20.80;19.20;;;;;16.22;49.38;98483.94;4837625;29;8944;-81
2022/11/16 06:06:09;;;;;;;;;18.60;17.00;;;;;16.45;48.86;98483.84;4816225;29;8878;-80
2022/11/16 06:08:38;;;;;;;;;21.20;19.00;;;;;16.53;48.80;98483.53;4845024;29;8905;-78
2022/11/16 06:11:12;;;;;;;;;22.00;22.00;;;;;16.54;49.20;98486.09;4851984;29;8893;-80
2022/11/16 06:13:41;;;;;;;;;21.40;20.80;;;;;16.61;48.72;98481.44;4791903;29;8981;-81
2022/11/16 06:16:10;;;;;;;;;20.40;19.40;;;;;16.80;47.89;98478.88;4853008;29;8886;-81
2022/11/16 06:18:43;;;;;;;;;24.00;21.80;;;;;16.75;47.96;98473.81;4855676;29;8889;-79
2022/11/16 06:21:16;;;;;;;;;21.40;20.00;;;;;16.55;48.45;98477.28;4873401;29;8883;-80
2022/11/16 06:23:45;;;;;;;;;21.40;21.00;;;;;16.35;48.49;98472.00;4872010;29;8891;-80
2022/11/16 06:26:15;;;;;;;;;16.80;16.20;;;;;16.19;49.09;98466.50;4856303;29;9019;-80
2022/11/16 06:28:43;;;;;;;;;14.40;13.80;;;;;16.04;49.15;98467.13;4825312;29;8900;-80
2022/11/16 06:31:13;;;;;;;;;15.00;13.20;;;;;16.06;49.42;98462.66;4838176;29;8904;-79
2022/11/16 06:33:42;;;;;;;;;18.00;18.00;;;;;16.15;49.26;98459.66;4818559;29;8930;-81
2022/11/16 06:36:20;;;;;;;;;20.00;19.20;;;;;16.56;48.34;98454.47;4838088;29;9013;-81
2022/11/16 06:38:49;;;;;;;;;22.00;20.80;;;;;16.67;48.27;98457.50;4839901;29;8875;-79
2022/11/16 06:41:21;;;;;;;;;21.60;21.60;;;;;16.99;47.51;98446.50;4839657;29;8912;-83
2022/11/16 06:43:51;;;;;;;;;22.40;22.20;;;;;17.10;47.26;98445.09;4805546;29;9115;-82
2022/11/16 06:46:24;;;;;;;;;22.40;20.80;;;;;17.08;46.65;98446.94;4822910;29;8908;-81
2022/11/16 06:48:53;;;;;;;;;23.20;23.00;;;;;17.00;46.93;98441.16;4837544;29;8896;-80
2022/11/16 06:51:22;;;;;;;;;22.80;21.80;;;;;17.10;47.00;98447.72;4853836;29;8900;-79
2022/11/16 06:53:51;;;;;;;;;21.40;20.60;;;;;17.11;46.81;98435.44;4841186;29;8901;-77
2022/11/16 06:56:22;;;;;;;;;26.40;24.20;;;;;17.44;47.19;98448.81;4848147;29;8887;-79
2022/11/16 06:58:57;;;;;;;;;27.20;24.20;;;;;17.38;46.41;98446.47;4844729;29;8927;-79
2022/11/16 07:01:28;;;;;;;;;26.00;21.80;;;;;17.58;46.64;98440.28;4855998;29;8891;-79
2022/11/16 07:04:03;;;;;;;;;29.00;26.20;;;;;17.37;46.26;98441.28;4853480;29;8978;-79
2022/11/16 07:06:32;;;;;;;;;32.60;29.00;;;;;17.52;46.35;98441.44;4870848;29;8883;-78
2022/11/16 07:09:01;;;;;;;;;26.00;25.40;;;;;17.63;46.63;98434.78;4856248;29;9657;-80
2022/11/16 07:11:35;;;;;;;;;24.80;23.60;;;;;17.83;45.35;98433.84;4856237;29;8879;-80
2022/11/16 07:14:04;;;;;;;;;22.60;21.20;;;;;17.79;45.06;98434.91;4842234;29;8895;-81
2022/11/16 07:16:35;;;;;;;;;26.80;25.80;;;;;17.68;45.79;98432.81;4857269;29;8914;-80
2022/11/16 07:19:05;;;;;;;;;26.60;24.60;;;;;18.01;45.20;98437.41;4841753;29;8914;-80
2022/11/16 07:21:37;;;;;;;;;24.00;23.40;;;;;17.97;44.79;98436.69;4874779;29;8850;-81
2022/11/16 07:24:09;;;;;;;;;26.80;24.40;;;;;18.20;44.63;98434.72;4861779;29;8878;-82
2022/11/16 07:26:39;;;;;;;;;23.60;22.20;;;;;18.27;44.99;98436.13;4877070;29;9022;-79
2022/11/16 07:29:16;;;;;;;;;26.40;24.20;;;;;18.30;44.66;98425.44;4880992;29;8881;-79
2022/11/16 07:32:04;;;;;;;;;23.80;22.60;;;;;18.45;44.04;98427.28;4861765;29;8915;-80
2022/11/16 07:34:56;;;;;;;;;24.40;24.40;;;;;18.50;44.49;98425.25;4855231;29;8910;-79
2022/11/16 07:37:27;;;;;;;;;30.00;27.60;;;;;18.47;44.78;98422.78;4837984;29;8895;-79
2022/11/16 07:39:56;;;;;;;;;19.80;19.60;;;;;18.58;44.35;98416.97;4862127;29;9030;-80
2022/11/16 07:42:27;;;;;;;;;29.60;27.60;;;;;18.56;44.22;98415.31;4833109;29;8941;-79
2022/11/16 07:45:28;;;;;;;;;24.60;24.20;;;;;18.36;44.83;98414.56;4868039;29;8855;-80
2022/11/16 07:48:01;;;;;;;;;23.40;22.80;;;;;18.42;44.71;98416.03;4842901;29;8897;-78
2022/11/16 07:50:47;;;;;;;;;22.20;22.20;;;;;18.41;44.87;98416.94;4852996;29;8895;-81
2022/11/16 07:53:18;;;;;;;;;23.20;21.40;;;;;18.50;44.80;98408.56;4830102;29;8900;-80
2022/11/16 07:55:52;;;;;;;;;26.20;23.00;;;;;18.80;44.19;98418.47;4803988;29;8876;-80
2022/11/16 07:58:23;;;;;;;;;27.00;24.60;;;;;18.77;44.18;98411.56;4803268;29;8872;-80
2022/11/16 08:00:54;;;;;;;;;22.80;21.80;;;;;18.95;43.82;98401.84;4803051;29;9647;-81
2022/11/16 08:03:23;;;;;;;;;23.20;21.00;;;;;19.00;43.80;98404.25;4803615;29;8869;-79
2022/11/16 08:05:59;;;;;;;;;25.60;23.40;;;;;19.09;43.48;98407.25;4836838;29;8972;-80
2022/11/16 08:08:29;;;;;;;;;30.00;24.00;;;;;19.33;43.25;98413.94;4836559;29;9594;-80
2022/11/16 08:11:01;;;;;;;;;21.80;18.60;;;;;19.19;43.41;98402.31;4840190;29;8881;-81
2022/11/16 08:13:33;;;;;;;;;26.80;24.60;;;;;19.22;43.29;98398.66;4858939;29;8863;-80
2022/11/16 08:16:06;;;;;;;;;23.20;21.60;;;;;19.28;42.97;98393.03;4825085;29;9684;-81
2022/11/16 08:18:36;;;;;;;;;23.40;22.40;;;;;19.27;43.36;98405.41;4839827;29;8887;-79
2022/11/16 08:21:07;;;;;;;;;27.00;25.80;;;;;19.51;43.35;98396.19;4829498;29;8895;-81
2022/11/16 08:23:36;;;;;;;;;23.40;21.60;;;;;19.66;43.73;98401.50;4841568;29;8863;-78
2022/11/16 08:26:08;;;;;;;;;28.80;25.00;;;;;19.79;44.11;98406.97;4856056;29;9519;-79
2022/11/16 08:28:40;;;;;;;;;26.00;24.80;;;;;19.89;44.17;98403.81;4824435;29;8859;-80
2022/11/16 08:31:10;;;;;;;;;34.00;30.80;;;;;19.98;43.83;98405.91;4840415;29;8931;-79
2022/11/16 08:33:40;;;;;;;;;30.60;30.60;;;;;20.01;44.20;98408.41;4840583;29;9025;-79
2022/11/16 08:36:16;;;;;;;;;30.00;26.40;;;;;20.07;44.42;98400.09;4857954;29;8987;-80
2022/11/16 08:38:47;;;;;;;;;33.00;30.40;;;;;20.12;44.77;98403.34;4862842;29;8988;-79
2022/11/16 08:41:16;;;;;;;;;29.80;29.40;;;;;20.15;45.69;98395.22;4874841;29;8913;-80
2022/11/16 08:43:49;;;;;;;;;35.40;30.20;;;;;20.17;45.77;98403.06;4872122;29;8899;-78
2022/11/16 08:46:20;;;;;;;;;29.00;29.00;;;;;20.18;45.96;98394.19;4858000;29;8883;-80
2022/11/16 08:48:58;;;;;;;;;31.60;30.80;;;;;20.22;46.55;98393.06;4841523;29;8875;-80
2022/11/16 08:51:27;;;;;;;;;35.40;30.40;;;;;19.93;46.14;98392.13;4840343;29;8894;-79
2022/11/16 08:54:04;;;;;;;;;27.20;27.20;;;;;19.98;46.23;98395.31;4840170;29;8893;-79
2022/11/16 08:56:34;;;;;;;;;32.80;30.60;;;;;20.03;46.29;98394.13;4855315;29;8911;-79
2022/11/16 08:59:05;;;;;;;;;46.75;37.50;;;;;20.13;47.37;98394.47;4875279;29;8902;-80
2022/11/16 09:01:33;;;;;;;;;38.40;33.40;;;;;20.23;46.64;98389.47;4877624;29;8927;-79
2022/11/16 09:04:02;;;;;;;;;29.80;29.00;;;;;20.27;46.97;98395.44;4863510;29;8897;-77
2022/11/16 09:06:31;;;;;;;;;32.50;31.50;;;;;20.35;47.51;98391.38;4894321;29;8977;-80
2022/11/16 09:09:00;;;;;;;;;37.50;33.25;;;;;20.44;47.07;98397.94;4879000;29;8867;-78
2022/11/16 09:11:29;;;;;;;;;38.25;32.25;;;;;20.48;46.83;98388.88;4894981;29;8954;-79
2022/11/16 09:13:57;;;;;;;;;35.40;32.60;;;;;20.33;46.28;98387.97;4894417;29;8901;-78
2022/11/16 09:16:28;;;;;;;;;37.80;34.60;;;;;20.39;46.06;98382.31;4881367;29;8863;-78
2022/11/16 09:18:56;;;;;;;;;42.00;33.75;;;;;20.35;46.32;98385.25;4888163;29;9028;-79
2022/11/16 09:21:27;;;;;;;;;33.20;32.00;;;;;20.41;46.03;98380.44;4878972;29;8879;-78
2022/11/16 09:23:57;;;;;;;;;31.40;27.60;;;;;20.53;46.48;98380.63;4894601;29;9027;-79
2022/11/16 09:26:26;;;;;;;;;38.00;34.00;;;;;20.58;46.28;98368.81;4877021;29;9693;-79
2022/11/16 09:28:56;;;;;;;;;30.80;30.00;;;;;20.68;45.95;98369.16;4881303;29;8859;-80
2022/11/16 09:31:28;;;;;;;;;32.00;30.60;;;;;20.84;46.22;98364.63;4845858;29;8994;-78
2022/11/16 09:33:58;;;;;;;;;30.40;30.20;;;;;20.98;46.43;98373.50;4871289;29;8879;-79
2022/11/16 09:36:27;;;;;;;;;34.40;32.20;;;;;21.01;45.27;98360.94;4878907;29;8894;-81
2022/11/16 09:38:57;;;;;;;;;36.20;32.00;;;;;21.11;46.08;98355.06;4867361;29;8907;-80
2022/11/16 09:42:16;;;;;;;;;41.20;32.80;;;;;21.45;45.25;98358.25;4874813;29;8963;-77
2022/11/16 09:45:03;;;;;;;;;36.75;33.50;;;;;21.49;45.89;98347.31;4873794;29;8883;-78
2022/11/16 09:47:47;;;;;;;;;42.00;34.50;;;;;21.50;45.46;98342.88;4864599;29;8891;-78
2022/11/16 09:50:26;;;;;;;;;42.50;36.25;;;;;21.46;44.39;98339.59;4859233;29;9006;-79
2022/11/16 09:53:00;;;;;;;;;40.50;35.75;;;;;21.30;44.23;98334.38;4857931;29;8867;-78
2022/11/16 09:55:36;;;;;;;;;40.00;34.50;;;;;21.41;44.50;98331.03;4841756;29;8883;-81
2022/11/16 09:58:11;;;;;;;;;37.60;32.00;;;;;21.50;44.02;98324.31;4858859;29;8878;-77
2022/11/16 10:00:44;;;;;;;;;37.80;33.40;;;;;21.63;44.69;98330.53;4858311;29;8993;-78
2022/11/16 10:03:15;;;;;;;;;35.50;32.75;;;;;21.71;43.67;98324.72;4857941;29;8868;-78
2022/11/16 10:05:51;;;;;;;;;39.40;33.80;;;;;21.76;43.66;98317.31;4842470;29;8883;-78
2022/11/16 10:08:27;;;;;;;;;36.00;32.00;;;;;21.68;43.66;98314.28;4858045;29;8871;-78
2022/11/16 10:11:09;;;;;;;;;35.25;31.75;;;;;21.99;44.59;98310.47;4858452;29;8871;-79
2022/11/16 10:13:49;;;;;;;;;30.60;27.60;;;;;22.06;43.23;98305.56;4856673;29;8879;-77
2022/11/16 10:16:26;;;;;;;;;33.00;29.80;;;;;22.20;42.89;98293.06;4858115;29;8954;-81
2022/11/16 10:19:00;;;;;;;;;31.00;27.40;;;;;22.15;42.60;98289.03;4826049;29;9701;-79
2022/11/16 10:21:42;;;;;;;;;31.60;29.80;;;;;22.28;42.33;98278.44;4857536;29;8863;-80
2022/11/16 10:24:46;;;;;;;;;29.00;26.80;;;;;22.29;41.48;98275.69;4859653;29;8964;-79
2022/11/16 10:27:33;;;;;;;;;31.80;28.80;;;;;22.24;41.62;98274.28;4847726;29;8875;-78
2022/11/16 10:30:09;;;;;;;;;27.00;24.00;;;;;22.21;41.52;98267.34;4849907;29;8944;-78
2022/11/16 10:32:44;;;;;;;;;25.60;23.40;;;;;22.13;40.80;98262.56;4859395;29;9032;-81
2022/11/16 10:35:18;;;;;;;;;20.00;20.00;;;;;22.20;40.16;98255.88;4864859;29;9758;-79
2022/11/16 10:37:50;;;;;;;;;21.00;18.40;;;;;22.11;39.71;98259.16;4857830;29;10012;-79
2022/11/16 10:40:22;;;;;;;;;24.00;23.80;;;;;22.03;40.83;98245.59;4877306;29;8877;-80
2022/11/16 10:43:00;;;;;;;;;21.60;19.80;;;;;22.25;39.94;98245.00;4877701;29;9000;-78
2022/11/16 10:45:37;;;;;;;;;20.40;18.40;;;;;22.33;39.54;98239.16;4877038;29;8907;-79
2022/11/16 10:48:15;;;;;;;;;14.20;14.20;;;;;22.51;39.50;98231.69;4877144;29;8856;-79
2022/11/16 10:50:47;;;;;;;;;16.00;14.60;;;;;22.53;38.85;98227.97;4876770;29;9140;-78
2022/11/16 10:53:26;;;;;;;;;14.80;14.00;;;;;22.48;37.43;98227.44;4892500;29;8873;-79
2022/11/16 10:56:11;;;;;;;;;12.80;12.80;;;;;22.53;37.46;98221.78;4892200;29;9005;-81
2022/11/16 10:58:53;;;;;;;;;14.40;13.40;;;;;22.64;37.88;98221.03;4876981;29;8873;-82
2022/11/16 11:01:29;;;;;;;;;12.20;12.20;;;;;22.72;38.21;98218.66;4877249;29;8865;-79
2022/11/16 11:04:13;;;;;;;;;12.00;11.60;;;;;22.86;37.67;98204.41;4893364;29;8869;-79
2022/11/16 11:06:43;;;;;;;;;16.00;15.20;;;;;22.82;38.06;98206.44;4891038;29;8868;-79
2022/11/16 11:09:31;;;;;;;;;14.00;14.00;;;;;23.10;38.06;98201.75;4892670;29;8865;-76
2022/11/16 11:15:05;;;;;;;;;14.60;13.60;;;;;22.44;37.65;98199.41;4858120;29;8907;-78
2022/11/16 11:17:35;;;;;;;;;9.00;9.00;;;;;22.70;37.68;98194.00;4860577;29;8909;-79
2022/11/16 11:20:07;;;;;;;;;13.20;13.00;;;;;22.66;37.52;98193.38;4858653;29;8894;-79
2022/11/16 11:22:44;;;;;;;;;15.40;13.80;;;;;22.67;36.39;98188.94;4860563;29;8917;-80
2022/11/16 11:25:21;;;;;;;;;13.80;11.20;;;;;22.78;36.72;98183.69;4876350;29;8902;-78
2022/11/16 11:27:50;;;;;;;;;10.60;8.80;;;;;22.36;37.14;98184.00;4861197;29;8891;-81
2022/11/16 11:30:20;;;;;;;;;14.00;14.00;;;;;22.51;37.37;98170.56;4860099;29;8887;-78
2022/11/16 11:32:51;;;;;;;;;16.60;16.20;;;;;22.50;37.48;98169.72;4866194;29;8929;-78
2022/11/16 11:35:27;;;;;;;;;16.60;15.20;;;;;22.80;37.36;98168.47;4826274;29;8863;-78
2022/11/16 11:38:00;;;;;;;;;13.40;13.20;;;;;23.00;37.65;98168.81;4857056;29;8905;-80
2022/11/16 11:40:35;;;;;;;;;12.80;12.40;;;;;23.15;37.33;98157.06;4857909;29;8875;-78
2022/11/16 11:43:05;;;;;;;;;11.60;10.60;;;;;22.89;36.65;98156.31;4840449;29;9002;-79
2022/11/16 11:45:44;;;;;;;;;17.40;15.60;;;;;22.99;36.99;98146.72;4857259;29;8883;-80
2022/11/16 11:48:30;;;;;;;;;17.80;15.80;;;;;23.14;36.87;98147.41;4856962;29;8883;-78
2022/11/16 11:51:02;;;;;;;;;28.40;28.40;;;;;23.13;36.97;98141.22;4855384;29;8899;-78
2022/11/16 11:53:44;;;;;;;;;19.20;16.80;;;;;23.26;36.67;98141.16;4855462;29;8887;-79
2022/11/16 11:56:14;;;;;;;;;18.00;18.00;;;;;22.97;37.05;98143.31;4855476;29;8925;-81
2022/11/16 11:58:44;;;;;;;;;11.20;10.40;;;;;22.84;37.06;98135.38;4855223;29;8871;-78
2022/11/16 12:01:57;;;;;;;;;11.00;11.00;;;;;22.68;37.47;98138.31;4840025;29;8897;-78
2022/11/16 12:04:57;;;;;;;;;9.80;8.60;;;;;23.06;37.65;98131.16;4838983;29;8883;-79
2022/11/16 12:07:42;;;;;;;;;16.40;13.60;;;;;23.20;37.41;98122.16;4854882;29;8989;-78
2022/11/16 12:10:26;;;;;;;;;13.00;9.20;;;;;23.30;37.46;98124.00;4840350;29;8909;-78
2022/11/16 12:13:10;;;;;;;;;7.80;7.80;;;;;23.23;36.24;98130.78;4855358;29;8882;-81
2022/11/16 12:15:53;;;;;;;;;7.00;6.00;;;;;23.26;36.31;98130.53;4856899;29;8985;-77
2022/11/16 12:18:38;;;;;;;;;7.00;7.00;;;;;23.23;36.66;98117.47;4866167;29;8909;-78
2022/11/16 12:21:13;;;;;;;;;6.20;6.20;;;;;23.27;36.00;98112.75;4851819;29;9642;-79
2022/11/16 12:24:06;;;;;;;;;5.20;4.60;;;;;23.40;36.08;98120.66;4840962;29;8879;-77
2022/11/16 12:26:51;;;;;;;;;6.80;5.80;;;;;23.47;36.42;98114.72;4854224;29;8898;-78
2022/11/16 12:29:26;;;;;;;;;8.60;8.00;;;;;23.54;37.06;98117.78;4808985;29;8879;-79
2022/11/16 12:32:21;;;;;;;;;8.00;8.00;;;;;23.70;36.86;98107.63;4823118;29;8891;-78
2022/11/16 12:35:08;;;;;;;;;9.80;9.80;;;;;23.59;35.91;98101.44;4820189;29;8878;-80
2022/11/16 12:37:45;;;;;;;;;8.00;8.00;;;;;23.26;36.64;98101.25;4836960;29;8890;-78
2022/11/16 12:40:30;;;;;;;;;13.80;12.60;;;;;23.40;36.23;98100.19;4854731;29;9003;-81
2022/11/16 12:43:11;;;;;;;;;10.00;8.60;;;;;23.48;36.45;98100.47;4856072;29;8887;-80
2022/11/16 12:46:10;;;;;;;;;9.80;8.40;;;;;23.67;36.44;98091.09;4839537;29;8898;-79
2022/11/16 12:49:11;;;;;;;;;9.00;8.00;;;;;23.53;35.93;98086.81;4854340;29;8986;-78